LKKU  Kunovice Airport

Add Bookmark

Uherské Hradiště, Czech Republic

Status IATA
Operational UHE
Latitude Longitude
49° 1' 45" N 17° 26' 22" E
49.029400 17.439699
Local (DST + 2) UTC (GMT + 1)
Oct 30, 2014 04:06 Oct 30, 2014 15:06
Sunrise-Sunset Local UTC
Begin Civil Twilight 06:00 05:00
Sunrise 06:33 05:33
Sunset 04:34 15:34
End Civil Twilight 05:07 16:07

Current Weather

METAR Observed VFR
LKKU 301400Z 07002KT 9999 SCT032 11/04 Q1025 Thu, Oct 30, 2014 @ 14:00 UTC
(1 Hour, 6 Minutes ago)
Visual Flight Rules
Wind Visibility Clouds Conditions
070° at 2 knots (4 kph) 10 km or more
  • Scattered at 3,200' AGL
  • No significant weather
Temperatures Readings Precipitation
Current Temp 11°C (52°F)
Dewpoint 4°C (39°F)
Humidity 62%
Altimeter 30.27"Hg
Sea Level Pressure 1025mb
Field Elevation 580.71'
None Recorded

Additional weather within a 92.6km radius of LKKU

Map ICAO Location
LZPP 53.2km S (148°)
LKTB 55.9km W (284°)
LZZI 88.3km E (075°)
LKMT 88.5km N (033°)

24 Hour Weather History

Loading
-

24 Hour Weather Graphs

Loading
-

CheckWX.com is intended as a tool to help pilots better visualize weather data. It is not intended as a substitute for an official weather briefing obtained from a Flight Service Station. CheckWX.com does not meet the FAA requirements for an official pre-flight weather briefing. Therefore, it's important that pilots still call and obtain an official FSS pre-flight weather briefing.